Time;durP1;ratioP1;P1;durP2;ratioP2;P2;SDS_P1;SDS_P2;PMS_P1;PMS_P2;Temp;Humidity;BMP_temperature;BMP_pressure;BME280_temperature;BME280_humidity;BME280_pressure;Samples;Min_cycle;Max_cycle;Signal;HPM_P1;HPM_P2
2023/10/02 00:00:39;;;;;;;;;;;;;;;12.63;99.97;97945.13;5003819;28;19975;-62
2023/10/02 00:03:09;;;;;;;;;;;;;;;12.75;99.14;97948.53;5002883;28;19925;-62
2023/10/02 00:05:50;;;;;;;;;;;;;;;12.86;98.53;97949.47;5002421;28;19925;-61
2023/10/02 00:08:40;;;;;;;;;;;;;;;12.91;98.19;97948.72;5001748;28;19967;-61
2023/10/02 00:11:35;;;;;;;;;;;;;;;12.97;97.47;97945.81;5003495;28;20016;-62
2023/10/02 00:16:58;;;;;;;;;;;;;;;13.01;97.27;97949.69;5002883;28;19979;-62
2023/10/02 00:19:38;;;;;;;;;;;;;;;13.19;95.79;97936.03;5003639;28;19945;-62
2023/10/02 00:22:09;;;;;;;;;;;;;;;13.22;95.20;97944.47;5003119;28;19925;-62
2023/10/02 00:24:37;;;;;;;;;;;;;;;12.98;97.27;97941.22;5002851;28;20023;-61
2023/10/02 00:27:08;;;;;;;;;;;;;;;13.00;96.58;97945.31;5006052;28;20604;-61
2023/10/02 00:29:35;;;;;;;;;;;;;;;13.06;96.60;97937.22;5004666;28;19998;-62
2023/10/02 00:32:11;;;;;;;;;;;;;;;13.10;96.25;97933.75;5005029;28;19921;-62
2023/10/02 00:34:38;;;;;;;;;;;;;;;13.02;97.01;97931.47;5005490;28;20451;-61
2023/10/02 00:37:12;;;;;;;;;;;;;;;13.04;97.09;97931.22;5006254;28;20017;-60
2023/10/02 00:39:39;;;;;;;;;;;;;;;13.06;97.49;97923.63;5005517;28;20032;-60
2023/10/02 00:42:24;;;;;;;;;;;;;;;13.15;96.95;97935.69;5006930;28;20312;-62
2023/10/02 00:44:56;;;;;;;;;;;;;;;13.13;97.39;97929.69;5020836;28;20351;-61
2023/10/02 00:47:47;;;;;;;;;;;;;;;13.19;97.69;97931.38;4990757;28;19944;-61
2023/10/02 00:50:19;;;;;;;;;;;;;;;13.18;97.56;97931.63;4988230;28;20347;-62
2023/10/02 00:52:56;;;;;;;;;;;;;;;13.10;98.10;97924.75;5006212;28;20001;-62
2023/10/02 00:55:24;;;;;;;;;;;;;;;12.96;98.75;97925.16;5002858;28;20026;-61
2023/10/02 00:57:56;;;;;;;;;;;;;;;12.86;99.18;97931.28;5000509;28;20420;-62
2023/10/02 01:00:35;;;;;;;;;;;;;;;12.77;99.98;97927.38;5003850;28;19971;-61
2023/10/02 01:03:09;;;;;;;;;;;;;;;12.66;100.00;97923.72;4990110;28;20407;-62
2023/10/02 01:05:50;;;;;;;;;;;;;;;12.70;100.00;97918.59;4987349;28;20064;-62
2023/10/02 01:08:25;;;;;;;;;;;;;;;12.60;100.00;97921.97;5004150;28;20418;-62
2023/10/02 01:10:59;;;;;;;;;;;;;;;12.60;100.00;97917.38;5005868;28;19925;-62
2023/10/02 01:13:30;;;;;;;;;;;;;;;12.61;100.00;97915.50;4992515;28;19979;-61
2023/10/02 01:15:59;;;;;;;;;;;;;;;12.63;100.00;97916.06;5005352;28;19992;-61
2023/10/02 01:18:29;;;;;;;;;;;;;;;12.66;100.00;97914.72;5006234;28;20396;-61
2023/10/02 01:20:59;;;;;;;;;;;;;;;12.70;100.00;97911.25;4991442;28;19932;-61
2023/10/02 01:23:26;;;;;;;;;;;;;;;12.73;100.00;97918.91;4995976;28;19921;-61
2023/10/02 01:25:57;;;;;;;;;;;;;;;12.76;100.00;97917.59;5005731;28;19929;-60
2023/10/02 01:28:32;;;;;;;13.00;5.70;;;;;;;12.74;100.00;97917.84;4991489;28;19953;-60
2023/10/02 01:31:31;;;;;;;14.32;5.78;;;;;;;12.75;100.00;97910.50;5003550;28;20049;-61
2023/10/02 01:33:45;;;;;;;13.45;6.00;;;;;;;12.76;100.00;97912.16;5004547;28;20070;-60
2023/10/02 01:36:12;;;;;;;11.23;4.60;;;;;;;12.78;100.00;97917.34;5005679;28;20719;-61
2023/10/02 01:38:41;;;;;;;13.88;6.22;;;;;;;12.76;100.00;97914.88;4986845;28;20509;-62
2023/10/02 01:41:08;;;;;;;15.70;6.15;;;;;;;12.76;100.00;97914.88;5005182;28;20042;-62
2023/10/02 01:43:38;;;;;;;11.63;4.90;;;;;;;12.74;100.00;97919.72;5007491;28;20045;-62
2023/10/02 01:46:06;;;;;;;16.73;5.78;;;;;;;12.70;100.00;97913.97;4988003;28;20044;-62
2023/10/02 01:48:37;;;;;;;14.13;6.15;;;;;;;12.75;100.00;97911.31;5011386;28;20069;-62
2023/10/02 01:51:20;;;;;;;14.02;5.80;;;;;;;12.87;100.00;97916.63;4987337;28;20042;-62
2023/10/02 01:54:03;;;;;;;11.55;5.60;;;;;;;12.93;100.00;97914.78;5003902;28;20132;-62
2023/10/02 01:56:34;;;;;;;14.88;5.90;;;;;;;12.99;100.00;97915.66;4984570;28;20677;-62
2023/10/02 01:59:10;;;;;;;11.35;5.15;;;;;;;12.99;100.00;97915.66;5003124;28;20493;-61
2023/10/02 02:01:57;;;;;;;12.88;5.10;;;;;;;12.96;100.00;97917.00;4985229;28;20046;-62
2023/10/02 02:04:33;;;;;;;15.18;6.43;;;;;;;12.96;100.00;97911.56;4990834;28;20034;-59
2023/10/02 02:07:02;;;;;;;11.32;5.03;;;;;;;12.88;100.00;97912.84;5002904;28;20042;-61
2023/10/02 02:09:37;;;;;;;14.05;5.57;;;;;;;12.89;100.00;97910.94;5005188;28;20117;-61
2023/10/02 02:12:05;;;;;;;14.70;6.45;;;;;;;12.90;100.00;97915.28;5004267;28;20072;-61
2023/10/02 02:14:49;;;;;;;13.68;4.75;;;;;;;12.85;100.00;97909.78;5004350;28;20042;-61
2023/10/02 02:17:27;;;;;;;12.70;5.63;;;;;;;12.83;100.00;97910.03;5001832;28;20045;-61
2023/10/02 02:19:59;;;;;;;12.02;5.32;;;;;;;12.79;100.00;97914.34;5008663;28;20042;-60
2023/10/02 02:22:31;;;;;;;17.15;5.80;;;;;;;12.76;100.00;97912.16;4991722;28;20041;-60
2023/10/02 02:24:59;;;;;;;15.15;4.72;;;;;;;12.78;100.00;97918.13;5003496;28;20061;-61
2023/10/02 02:27:25;;;;;;;13.52;5.57;;;;;;;12.85;100.00;97918.78;4988653;28;20098;-60
2023/10/02 02:29:56;;;;;;;15.43;5.55;;;;;;;12.75;100.00;97914.03;5004060;28;20038;-62
2023/10/02 02:32:37;;;;;;;12.95;5.38;;;;;;;12.73;100.00;97909.94;5003834;28;20056;-62
2023/10/02 02:35:06;;;;;;;12.80;5.13;;;;;;;12.56;100.00;97910.81;4990678;28;20041;-62
2023/10/02 02:37:33;;;;;;;11.45;4.95;;;;;;;12.47;100.00;97913.16;5008613;28;20289;-61
2023/10/02 02:42:52;;;;;;;12.68;4.88;;;;;;;12.33;100.00;97901.00;5003053;28;20121;-62
2023/10/02 02:45:29;;;;;;;14.73;5.80;;;;;;;12.30;100.00;97913.19;5003332;28;20124;-61
2023/10/02 02:48:03;;;;;;;12.83;4.87;;;;;;;12.24;100.00;97908.75;5003486;28;20125;-61
2023/10/02 02:50:37;;;;;;;12.13;5.93;;;;;;;12.19;100.00;97904.06;5007112;28;20045;-62
2023/10/02 02:53:17;;;;;;;12.13;5.32;;;;;;;12.12;100.00;97910.75;4986093;28;20046;-61
2023/10/02 02:55:44;;;;;;;11.70;5.50;;;;;;;12.08;100.00;97904.97;5000690;28;20092;-61
2023/10/02 02:58:11;;;;;;;12.60;4.95;;;;;;;12.01;100.00;97905.13;4987477;28;20116;-62
2023/10/02 03:00:39;;;;;;;11.43;5.38;;;;;;;12.06;100.00;97913.38;5006114;28;20060;-61
2023/10/02 03:05:58;;;;;;;12.38;5.47;;;;;;;11.60;100.00;97912.63;5003614;28;20050;-60
2023/10/02 03:08:37;;;;;;;13.65;4.88;;;;;;;11.45;100.00;97912.09;5003358;28;20038;-60
2023/10/02 03:11:08;;;;;;;11.95;5.10;;;;;;;11.26;100.00;97913.38;5004071;28;20073;-62
2023/10/02 03:13:34;;;;;;;14.80;5.53;;;;;;;11.12;100.00;97910.13;5000761;28;20053;-62
2023/10/02 03:16:12;;;;;;;12.90;5.72;;;;;;;11.04;100.00;97908.63;4986544;28;20099;-61
2023/10/02 03:18:43;;;;;;;13.27;5.53;;;;;;;11.14;100.00;97911.56;5003874;28;20390;-60
2023/10/02 03:21:24;;;;;;;11.88;5.25;;;;;;;10.98;100.00;97915.84;5003092;28;20099;-62
2023/10/02 03:23:54;;;;;;;14.88;5.63;;;;;;;10.83;100.00;97919.06;5000496;28;20037;-62
2023/10/02 03:29:05;;;;;;;12.98;5.25;;;;;;;10.83;100.00;97921.78;5001706;28;20107;-61
2023/10/02 03:31:43;;;;;;;13.88;5.95;;;;;;;10.92;100.00;97925.75;5002875;28;20057;-62
2023/10/02 03:34:32;;;;;;;13.88;5.70;;;;;;;10.80;100.00;97919.56;5003574;28;20046;-61
2023/10/02 03:37:08;;;;;;;13.75;5.55;;;;;;;10.90;100.00;97921.63;5003295;28;20125;-62
2023/10/02 03:42:25;;;;;;;14.77;5.57;;;;;;;10.72;100.00;97920.75;4999051;28;20046;-61
2023/10/02 03:44:58;;;;;;;14.63;6.03;;;;;;;10.85;100.00;97933.22;5003886;28;20066;-62
2023/10/02 03:47:30;;;;;;;14.70;5.80;;;;;;;10.96;100.00;97927.97;5003890;28;20104;-61
2023/10/02 03:50:01;;;;;;;12.98;5.07;;;;;;;10.85;100.00;97929.66;5002817;28;20038;-61
2023/10/02 03:52:31;;;;;;;12.93;5.35;;;;;;;10.65;100.00;97937.13;5003541;28;20044;-61
2023/10/02 03:55:14;;;;;;;13.60;4.55;;;;;;;10.47;100.00;97934.59;5002730;28;20041;-61
2023/10/02 03:57:47;;;;;;;13.68;6.00;;;;;;;10.28;100.00;97934.66;4998158;28;20080;-62
2023/10/02 04:00:26;;;;;;;13.60;5.65;;;;;;;9.98;100.00;97941.84;5004936;28;20684;-61
2023/10/02 04:02:56;;;;;;;13.50;5.32;;;;;;;9.89;100.00;97941.34;5007752;28;20046;-61
2023/10/02 04:05:31;;;;;;;13.95;5.95;;;;;;;9.81;100.00;97938.19;5010221;28;20042;-61
2023/10/02 04:08:13;;;;;;;13.80;6.30;;;;;;;9.70;100.00;97945.22;5010462;28;20125;-61
2023/10/02 04:10:56;;;;;;;11.38;5.13;;;;;;;9.78;100.00;97947.59;5008980;28;20050;-61
2023/10/02 04:13:29;;;;;;;12.02;5.53;;;;;;;10.02;100.00;97940.31;5009690;28;20045;-62
2023/10/02 04:16:28;;;;;;;13.32;5.35;;;;;;;10.12;100.00;97939.75;5009443;28;21586;-60
2023/10/02 04:18:46;;;;;;;16.45;6.35;;;;;;;10.18;100.00;97934.44;5009390;28;20034;-61
2023/10/02 04:21:13;;;;;;;16.40;5.68;;;;;;;10.19;100.00;97936.91;5009790;28;20104;-61
2023/10/02 04:23:42;;;;;;;16.23;6.40;;;;;;;10.21;100.00;97936.69;5008591;28;20077;-60
2023/10/02 04:26:19;;;;;;;13.13;6.65;;;;;;;10.22;100.00;97941.03;5012292;28;20124;-61
2023/10/02 04:28:55;;;;;;;13.18;5.88;;;;;;;10.30;100.00;97931.72;5008479;28;20034;-61
2023/10/02 04:31:30;;;;;;;11.75;6.10;;;;;;;10.50;100.00;97931.38;5004967;28;20042;-61
2023/10/02 04:34:16;;;;;;;12.68;5.45;;;;;;;10.46;100.00;97925.63;5011058;28;20088;-61
2023/10/02 04:36:43;;;;;;;12.68;5.50;;;;;;;10.44;100.00;97932.31;5009720;28;20045;-61
2023/10/02 04:39:52;;;;;;;12.88;5.70;;;;;;;10.53;100.00;97928.19;5009375;28;20456;-62
2023/10/02 04:42:18;;;;;;;12.00;4.82;;;;;;;10.62;100.00;97931.38;5009145;28;20501;-61
2023/10/02 04:44:48;;;;;;;13.82;5.78;;;;;;;10.72;100.00;97931.59;5011512;28;20472;-61
2023/10/02 04:47:18;;;;;;;11.88;5.25;;;;;;;10.73;100.00;97925.09;5008575;28;20117;-62
2023/10/02 04:55:42;;;;;;;14.27;6.45;;;;;;;10.93;100.00;97932.00;5008987;28;20042;-61
2023/10/02 04:58:18;;;;;;;17.38;6.22;;;;;;;10.98;100.00;97926.69;5008795;28;20041;-61
2023/10/02 05:03:32;;;;;;;13.98;5.25;;;;;;;11.11;100.00;97925.59;5005412;28;20125;-61
2023/10/02 05:05:59;;;;;;;12.05;5.45;;;;;;;10.98;100.00;97925.88;5005328;28;20501;-61
2023/10/02 05:11:26;;;;;;;14.75;6.70;;;;;;;11.09;100.00;97927.69;5007848;28;20061;-61
2023/10/02 05:16:38;;;;;;;15.20;6.00;;;;;;;11.07;100.00;97929.84;4999716;28;20038;-61
2023/10/02 05:19:07;;;;;;;14.82;6.70;;;;;;;11.03;100.00;97925.97;5004435;28;20042;-60
2023/10/02 05:21:49;;;;;;;13.18;6.30;;;;;;;11.02;100.00;97932.47;5003584;28;20046;-61
2023/10/02 05:24:18;;;;;;;16.70;6.15;;;;;;;10.87;100.00;97931.06;5003777;28;20057;-60
2023/10/02 05:26:46;;;;;;;16.85;6.65;;;;;;;10.77;100.00;97930.88;5001485;28;20048;-61
2023/10/02 05:29:17;;;;;;;13.63;5.78;;;;;;;10.69;100.00;97933.94;5003116;28;20615;-62
2023/10/02 05:31:45;;;;;;;;;;;;;;;10.59;100.00;97938.09;5004089;28;20073;-61
2023/10/02 05:34:16;;;;;;;14.20;5.68;;;;;;;10.43;100.00;97942.31;5002944;28;19926;-60
2023/10/02 05:37:03;;;;;;;14.30;6.50;;;;;;;10.25;100.00;97946.78;5003422;28;20046;-61
2023/10/02 05:39:50;;;;;;;11.70;5.70;;;;;;;10.23;100.00;97942.66;5003820;28;20029;-61
2023/10/02 05:42:16;;;;;;;15.95;6.47;;;;;;;10.15;100.00;97946.56;5002900;28;20520;-61
2023/10/02 05:44:44;;;;;;;16.17;6.32;;;;;;;10.10;100.00;97949.16;5001290;28;20052;-61
2023/10/02 05:47:15;;;;;;;15.82;6.55;;;;;;;10.06;100.00;97947.97;5002239;28;20050;-61
2023/10/02 05:49:49;;;;;;;;;;;;;;;10.12;100.00;97955.16;5002988;28;20147;-60
2023/10/02 05:52:23;;;;;;;17.15;5.82;;;;;;;10.18;100.00;97947.97;5002645;28;19988;-61
2023/10/02 05:54:53;;;;;;;16.88;6.93;;;;;;;10.28;100.00;97956.31;5001276;28;20066;-60
2023/10/02 05:57:31;;;;;;;12.95;5.68;;;;;;;10.31;100.00;97955.06;5001716;28;20049;-60
2023/10/02 06:00:00;;;;;;;16.95;6.45;;;;;;;10.31;100.00;97952.34;5002687;28;20042;-60
2023/10/02 06:02:27;;;;;;;16.52;6.28;;;;;;;10.26;100.00;97956.56;5002436;28;20191;-61
2023/10/02 06:05:04;;;;;;;15.23;6.57;;;;;;;10.28;100.00;97954.44;5004563;28;20049;-60
2023/10/02 06:07:51;;;;;;;16.33;7.18;;;;;;;10.37;100.00;97957.63;5005746;28;20057;-60
2023/10/02 06:10:26;;;;;;;16.67;7.33;;;;;;;10.52;100.00;97959.88;5004998;28;20048;-60
2023/10/02 06:13:03;;;;;;;15.30;6.70;;;;;;;10.61;100.00;97952.22;5007106;28;20265;-61
2023/10/02 06:15:43;;;;;;;17.35;7.78;;;;;;;10.66;100.00;97956.94;5003181;28;20073;-60
2023/10/02 06:18:10;;;;;;;14.15;6.45;;;;;;;10.82;100.00;97952.66;5001731;28;20100;-60
2023/10/02 06:20:55;;;;;;;19.02;7.55;;;;;;;11.01;100.00;97950.59;5003032;28;20509;-60
2023/10/02 06:23:22;;;;;;;15.57;6.97;;;;;;;11.17;100.00;97954.41;5002135;28;20074;-60
2023/10/02 06:25:49;;;;;;;15.52;6.78;;;;;;;11.24;100.00;97948.03;5005814;28;20070;-60
2023/10/02 06:28:28;;;;;;;12.63;5.88;;;;;;;11.26;100.00;97957.56;5001773;28;20116;-61
2023/10/02 06:30:55;;;;;;;13.10;6.75;;;;;;;11.29;100.00;97950.84;5002101;28;20072;-60
2023/10/02 06:33:22;;;;;;;14.18;6.05;;;;;;;11.39;100.00;97955.66;5000426;28;20045;-61
2023/10/02 06:35:57;;;;;;;12.00;5.65;;;;;;;11.47;100.00;97957.13;5002291;28;20137;-60
2023/10/02 06:38:24;;;;;;;16.55;6.63;;;;;;;11.54;100.00;97960.53;5002450;28;20429;-60
2023/10/02 06:40:56;;;;;;;14.85;5.47;;;;;;;11.62;100.00;97951.16;5002322;28;20056;-61
2023/10/02 06:43:31;;;;;;;16.75;5.63;;;;;;;11.70;100.00;97959.72;5002667;28;20096;-60
2023/10/02 06:46:06;;;;;;;17.67;6.72;;;;;;;11.84;100.00;97962.13;5001327;28;20049;-60
2023/10/02 06:48:34;;;;;;;13.77;5.55;;;;;;;11.97;100.00;97956.38;5004706;28;20133;-61
2023/10/02 06:51:03;;;;;;;13.85;5.32;;;;;;;12.09;100.00;97955.50;5003697;28;20463;-61
2023/10/02 06:53:30;;;;;;;18.15;6.45;;;;;;;12.21;100.00;97956.22;5004306;28;20042;-61
2023/10/02 06:56:07;;;;;;;15.55;6.03;;;;;;;12.35;100.00;97955.88;5002948;28;20501;-60
2023/10/02 06:58:46;;;;;;;15.30;6.80;;;;;;;12.53;100.00;97956.69;5000173;28;20521;-61
2023/10/02 07:01:13;;;;;;;13.20;5.65;;;;;;;12.70;100.00;97959.34;5003975;28;20069;-61
2023/10/02 07:03:40;;;;;;;17.35;7.40;;;;;;;12.84;100.00;97957.91;5003346;28;20532;-61
2023/10/02 07:06:10;;;;;;;16.75;6.28;;;;;;;12.99;100.00;97960.00;5003150;28;20030;-60
2023/10/02 07:08:39;;;;;;;14.45;6.38;;;;;;;13.13;100.00;97965.03;5002757;28;20050;-60
2023/10/02 07:11:10;;;;;;;13.82;6.22;;;;;;;13.23;100.00;97965.16;5000819;28;20057;-60
2023/10/02 07:13:51;;;;;;;13.07;5.78;;;;;;;13.40;100.00;97967.78;5001523;28;20128;-60
2023/10/02 07:16:17;;;;;;;14.15;6.10;;;;;;;13.55;100.00;97962.78;5001734;28;20042;-61
2023/10/02 07:18:49;;;;;;;15.43;6.53;;;;;;;13.71;100.00;97961.84;5001643;28;20085;-60
2023/10/02 07:21:19;;;;;;;13.15;5.68;;;;;;;13.89;100.00;97963.38;5002066;28;20056;-60
2023/10/02 07:23:46;;;;;;;16.30;6.00;;;;;;;14.12;100.00;97958.66;5001180;28;20045;-61
2023/10/02 07:26:20;;;;;;;18.00;7.00;;;;;;;14.29;100.00;97949.50;5003257;28;20125;-60
2023/10/02 07:28:50;;;;;;;18.98;7.55;;;;;;;14.52;100.00;97956.47;5002625;28;20041;-61
2023/10/02 07:31:22;;;;;;;16.97;6.40;;;;;;;14.69;100.00;97953.56;5001299;28;20046;-61
2023/10/02 07:33:55;;;;;;;17.92;6.90;;;;;;;14.91;100.00;97949.06;5000664;28;20049;-60
2023/10/02 07:36:26;;;;;;;13.63;6.28;;;;;;;15.02;100.00;97950.75;5000990;28;20528;-60
2023/10/02 07:38:53;;;;;;;;;;;;;;;15.07;100.00;97942.59;5001689;28;20108;-61
2023/10/02 07:41:23;;;;;;;14.02;5.70;;;;;;;15.13;99.85;97945.31;5001221;28;19975;-62
2023/10/02 07:43:55;;;;;;;13.60;5.88;;;;;;;15.18;99.90;97946.16;5003299;28;20124;-61
2023/10/02 07:46:22;;;;;;;13.60;6.03;;;;;;;15.38;98.88;97941.03;5001885;28;20050;-61
2023/10/02 07:48:57;;;;;;;15.93;6.55;;;;;;;15.67;97.14;97940.53;5000916;28;20117;-60
2023/10/02 07:51:30;;;;;;;14.18;6.00;;;;;;;15.85;97.01;97944.66;4996116;28;20045;-62
2023/10/02 07:53:58;;;;;;;16.92;6.43;;;;;;;16.09;95.02;97947.69;4999797;28;20073;-62
2023/10/02 07:56:27;;;;;;;13.43;5.63;;;;;;;16.36;91.93;97940.25;5000829;28;20117;-61
2023/10/02 07:59:00;;;;;;;15.82;6.60;;;;;;;16.65;89.15;97947.84;5000943;28;20041;-62
2023/10/02 08:01:28;;;;;;;15.35;6.43;;;;;;;16.78;86.39;97943.72;4998021;28;20217;-63
2023/10/02 08:03:55;;;;;;;16.02;6.78;;;;;;;16.80;86.21;97943.44;5000821;28;20095;-61
2023/10/02 08:06:33;;;;;;;17.20;6.80;;;;;;;16.84;86.75;97942.59;4999032;28;20443;-61
2023/10/02 08:11:51;;;;;;;15.80;7.40;;;;;;;17.10;83.08;97947.19;5000729;28;20060;-62
2023/10/02 08:14:38;;;;;;;16.65;7.43;;;;;;;17.38;81.21;97940.19;5005595;28;20539;-61
2023/10/02 08:17:17;;;;;;;15.15;6.95;;;;;;;17.59;80.85;97940.06;4999424;28;20115;-62
2023/10/02 08:19:54;;;;;;;18.67;7.57;;;;;;;17.74;78.70;97944.63;4998135;28;20042;-62
2023/10/02 08:22:23;;;;;;;19.25;7.95;;;;;;;17.97;78.44;97939.50;4994636;28;20038;-61
2023/10/02 08:24:50;;;;;;;19.52;8.18;;;;;;;18.12;77.86;97945.97;4998920;28;20054;-62
2023/10/02 08:27:17;;;;;;;18.52;7.10;;;;;;;18.25;77.55;97939.00;5000286;28;20053;-61
2023/10/02 08:29:44;;;;;;;17.77;7.57;;;;;;;18.38;74.36;97932.84;4999862;28;20853;-60
2023/10/02 08:32:12;;;;;;;18.23;7.70;;;;;;;18.60;73.91;97937.00;5000066;28;20048;-60
2023/10/02 08:34:38;;;;;;;20.58;7.97;;;;;;;18.67;73.50;97939.41;4999837;28;20525;-61
2023/10/02 08:37:05;;;;;;;18.05;7.97;;;;;;;18.67;74.01;97933.91;5001159;28;20697;-61
2023/10/02 08:39:36;;;;;;;19.75;7.95;;;;;;;18.75;75.17;97940.72;5002638;28;20038;-60
2023/10/02 08:42:09;;;;;;;17.73;7.55;;;;;;;18.82;74.45;97932.91;5002023;28;20046;-62
2023/10/02 08:44:40;;;;;;;;;;;;;;;18.90;75.06;97943.25;5007198;28;20641;-61
2023/10/02 08:47:07;;;;;;;;;;;;;;;18.96;75.50;97933.88;5002610;28;19929;-60
2023/10/02 08:49:35;;;;;;;;;;;;;;;19.06;75.67;97940.34;5007114;28;20336;-60
2023/10/02 08:52:07;;;;;;;;;;;;;;;19.08;75.35;97938.13;5006364;28;20004;-61
2023/10/02 08:54:33;;;;;;;;;;;;;;;19.13;74.52;97931.75;5008942;28;19929;-61
2023/10/02 08:57:08;;;;;;;;;;;;;;;19.19;74.83;97934.13;5002149;28;19984;-61
2023/10/02 08:59:41;;;;;;;;;;;;;;;19.31;74.56;97930.94;5005482;28;19994;-61
2023/10/02 09:02:15;;;;;;;;;;;;;;;19.37;74.41;97926.22;5004355;28;19961;-62
2023/10/02 09:04:51;;;;;;;;;;;;;;;19.50;74.38;97927.41;5005991;28;20011;-62
2023/10/02 09:07:22;;;;;;;;;;;;;;;19.53;73.41;97926.78;5004881;28;19975;-62
2023/10/02 09:10:03;;;;;;;;;;;;;;;19.56;74.38;97928.13;5004060;28;19926;-61
2023/10/02 09:12:30;;;;;;;;;;;;;;;19.69;73.99;97915.59;5000636;28;20451;-62
2023/10/02 09:15:20;;;;;;;;;;;;;;;19.79;72.37;97923.66;5005933;28;19932;-62
2023/10/02 09:17:57;;;;;;;;;;;;;;;19.88;72.69;97930.13;5003084;28;20020;-61
2023/10/02 09:20:38;;;;;;;;;;;;;;;20.05;72.78;97920.50;5005140;28;19925;-62
2023/10/02 09:23:08;;;;;;;;;;;;;;;20.14;72.35;97924.22;5004157;28;20010;-62
2023/10/02 09:25:40;;;;;;;;;;;;;;;20.28;71.57;97924.22;5008740;28;19960;-61
2023/10/02 09:28:16;;;;;;;;;;;;;;;20.36;71.09;97924.66;5004808;28;19948;-61
2023/10/02 09:30:43;;;;;;;;;;;;;;;20.41;71.45;97916.31;4999000;28;19929;-61
2023/10/02 09:33:14;;;;;;;;;;;;;;;20.56;69.82;97915.19;5003832;28;19925;-61
2023/10/02 09:35:54;;;;;;;;;;;;;;;20.71;69.55;97918.78;5003422;28;19922;-61
2023/10/02 09:38:42;;;;;;;;;;;;;;;20.83;68.00;97912.75;5003128;28;19985;-62
2023/10/02 09:41:16;;;;;;;;;;;;;;;20.95;68.14;97913.09;5004569;28;19921;-61
2023/10/02 09:43:42;;;;;;;;;;;;;;;20.99;68.08;97907.78;5006896;28;19964;-61
2023/10/02 09:46:21;;;;;;;;;;;;;;;21.10;67.89;97911.97;5007011;28;20463;-62
2023/10/02 09:48:57;;;;;;;;;;;;;;;21.23;67.47;97907.53;5002107;28;19926;-62
2023/10/02 09:51:26;;;;;;;;;;;;;;;21.29;65.55;97906.31;5004327;28;19931;-61
2023/10/02 09:54:05;;;;;;;;;;;;;;;21.40;63.88;97903.31;5003612;28;20028;-61
2023/10/02 09:56:37;;;;;;;;;;;;;;;21.48;64.45;97899.03;4999726;28;19999;-61
2023/10/02 09:59:16;;;;;;;;;;;;;;;21.70;65.21;97898.19;5000753;28;19921;-61
2023/10/02 10:02:08;;;;;;;;;;;;;;;21.67;63.89;97898.84;5003748;28;19980;-61
2023/10/02 10:07:52;;;;;;;;;;;;;;;21.69;62.41;97888.31;4956992;28;20306;-62
2023/10/02 10:10:28;;;;;;;;;;;;;;;21.85;62.40;97893.50;4961079;28;19922;-61
2023/10/02 10:12:55;;;;;;;;;;;;;;;21.92;62.80;97888.31;4986358;28;19929;-61
2023/10/02 10:15:26;;;;;;;;;;;;;;;21.90;62.37;97893.34;5003550;28;19971;-62
2023/10/02 10:17:55;;;;;;;;;;;;;;;21.82;62.83;97889.41;5002347;28;19967;-62
2023/10/02 10:20:25;;;;;;;;;;;;;;;21.78;64.04;97888.41;5003565;28;20590;-61
2023/10/02 10:22:55;;;;;;;;;;;;;;;21.73;65.03;97891.28;5001852;28;19974;-61
2023/10/02 10:27:54;;;;;;;;;;;;;;;22.17;57.71;97886.03;5002892;28;20573;-60
2023/10/02 10:33:01;;;;;;;;;;;;;;;22.16;60.00;97870.63;5003012;28;19929;-61
2023/10/02 10:35:33;;;;;;;;;;;;;;;22.17;58.79;97870.31;5002127;28;19933;-63
2023/10/02 10:38:03;;;;;;;;;;;;;;;22.22;58.79;97869.34;5007078;28;20419;-64
2023/10/02 10:40:44;;;;;;;;;;;;;;;22.29;56.60;97875.22;5011890;28;19979;-62
2023/10/02 10:43:14;;;;;;;;;;;;;;;22.27;56.37;97872.00;5003581;28;19962;-63
2023/10/02 10:45:40;;;;;;;;;;;;;;;22.19;57.18;97868.03;5001242;28;20028;-62
2023/10/02 10:48:23;;;;;;;;;;;;;;;22.19;58.04;97870.00;5000541;28;20003;-62
2023/10/02 10:51:06;;;;;;;;;;;;;;;22.18;57.36;97868.34;5002509;28;19979;-61
2023/10/02 10:53:33;;;;;;;;;;;;;;;22.27;56.04;97862.91;5000898;28;19995;-64
2023/10/02 10:56:05;;;;;;;;;;;;;;;22.44;56.02;97862.97;5001332;28;20434;-62
2023/10/02 10:58:34;;;;;;;;;;;;;;;22.45;56.76;97859.06;5002029;28;19961;-61
2023/10/02 11:01:05;;;;;;;;;;;;;;;22.50;57.24;97862.81;5001678;28;19921;-63
2023/10/02 11:03:32;;;;;;;;;;;;;;;22.53;58.19;97859.44;5002920;28;20525;-61
2023/10/02 11:06:01;;;;;;;;;;;;;;;22.58;56.93;97860.13;5002988;28;20393;-61
2023/10/02 11:08:28;;;;;;;;;;;;;;;22.63;56.94;97852.84;4998636;28;19944;-61
2023/10/02 11:11:06;;;;;;;;;;;;;;;22.64;57.13;97855.28;5002125;28;19928;-62
2023/10/02 11:13:53;;;;;;;;;;;;;;;22.63;57.52;97850.91;4998200;28;19960;-61
2023/10/02 11:16:30;;;;;;;;;;;;;;;22.62;54.77;97853.97;5002138;28;19971;-61
2023/10/02 11:22:02;;;;;;;;;;;;;;;22.90;51.72;97842.66;5005087;28;19932;-61
2023/10/02 11:24:29;;;;;;;;;;;;;;;22.90;56.13;97843.50;5000337;28;19929;-62
2023/10/02 11:27:05;;;;;;;;;;;;;;;22.96;56.87;97836.66;5002507;28;19972;-66
2023/10/02 11:29:40;;;;;;;;;;;;;;;23.06;54.12;97840.25;5002019;28;19925;-62
2023/10/02 11:32:21;;;;;;;;;;;;;;;23.15;53.21;97837.50;5001116;28;19921;-62
2023/10/02 11:34:47;;;;;;;;;;;;;;;23.27;52.46;97826.63;5001439;28;20436;-62
2023/10/02 11:37:15;;;;;;;;;;;;;;;23.49;52.18;97830.38;5002415;28;20800;-62
2023/10/02 11:39:42;;;;;;;;;;;;;;;23.56;52.86;97825.16;5002656;28;19943;-62
2023/10/02 11:42:09;;;;;;;;;;;;;;;23.67;53.33;97825.63;5002380;28;19932;-61
2023/10/02 11:44:39;;;;;;;;;;;;;;;23.76;53.10;97822.84;5005563;28;20016;-62
2023/10/02 11:47:09;;;;;;;;;;;;;;;23.77;51.68;97814.22;5001852;28;19922;-63
2023/10/02 11:49:37;;;;;;;;;;;;;;;23.85;51.54;97814.53;5001742;28;19932;-63
2023/10/02 11:52:04;;;;;;;26.58;10.80;;;;;;;23.94;50.39;97818.09;5001207;28;20292;-62
2023/10/02 11:54:36;;;;;;;22.50;10.57;;;;;;;23.96;51.52;97813.06;5001489;28;20046;-61
2023/10/02 11:57:08;;;;;;;24.15;10.88;;;;;;;24.02;52.89;97814.47;5001268;28;20559;-61
2023/10/02 11:59:43;;;;;;;19.48;9.55;;;;;;;24.03;51.45;97809.78;5000660;28;20042;-62
2023/10/02 12:02:13;;;;;;;23.33;9.48;;;;;;;24.06;53.72;97802.78;4998220;28;20044;-61
2023/10/02 12:04:40;;;;;;;21.00;8.70;;;;;;;24.07;53.83;97805.22;5001566;28;20128;-62
2023/10/02 12:07:07;;;;;;;;;;;;;;;24.13;54.24;97798.38;5000849;28;19968;-61
2023/10/02 12:09:33;;;;;;;;;;;;;;;24.18;52.00;97800.16;5002086;28;20111;-61
2023/10/02 12:12:00;;;;;;;;;;;;;;;24.25;52.35;97794.88;5001441;28;19925;-61
2023/10/02 12:14:28;;;;;;;22.02;9.95;;;;;;;24.33;51.36;97784.13;4999852;28;19935;-61
2023/10/02 12:16:57;;;;;;;21.02;9.15;;;;;;;24.31;50.97;97780.84;5001566;28;20058;-66
2023/10/02 12:19:25;;;;;;;26.27;10.95;;;;;;;24.32;48.82;97779.75;5001492;28;20497;-66
2023/10/02 12:21:52;;;;;;;18.45;8.88;;;;;;;24.36;50.32;97775.16;5002112;28;20541;-66
2023/10/02 12:24:35;;;;;;;22.73;10.95;;;;;;;24.42;47.14;97763.56;5003966;28;20053;-67
2023/10/02 12:27:10;;;;;;;24.98;10.98;;;;;;;24.57;48.32;97769.66;5005499;28;20124;-66
2023/10/02 12:29:37;;;;;;;23.75;10.77;;;;;;;24.76;45.74;97766.44;5001467;28;20049;-67
2023/10/02 12:32:05;;;;;;;26.58;11.77;;;;;;;24.83;44.58;97770.63;5004258;28;20038;-65
2023/10/02 12:34:33;;;;;;;24.70;10.90;;;;;;;24.98;42.53;97769.25;5004868;28;20049;-65
2023/10/02 12:37:00;;;;;;;26.75;11.57;;;;;;;25.02;43.25;97765.44;5004371;28;20121;-67
2023/10/02 12:39:28;;;;;;;25.48;11.20;;;;;;;25.09;42.87;97759.34;5004767;28;20068;-67
2023/10/02 12:41:56;;;;;;;25.27;10.73;;;;;;;25.15;44.21;97763.56;5004912;28;20412;-68
2023/10/02 12:44:22;;;;;;;27.02;11.15;;;;;;;25.22;44.99;97763.00;5004277;28;20559;-65
2023/10/02 12:46:50;;;;;;;21.15;10.45;;;;;;;25.30;44.56;97755.75;5004954;28;20052;-66
2023/10/02 12:49:21;;;;;;;22.63;10.50;;;;;;;25.38;45.78;97748.50;5005150;28;20045;-66
2023/10/02 12:51:50;;;;;;;28.30;12.10;;;;;;;25.47;45.04;97749.25;5002834;28;20540;-62
2023/10/02 12:54:16;;;;;;;20.52;10.07;;;;;;;25.54;46.13;97743.94;5003915;28;20061;-62
2023/10/02 12:56:45;;;;;;;24.20;10.18;;;;;;;25.58;45.61;97744.09;5003116;28;20041;-62